createdAt,value
2018-01-17T00:00:00.438Z,985.22
2018-01-17T00:01:00.455Z,985.19
2018-01-17T00:02:53.474Z,985.12
2018-01-17T00:03:53.514Z,985.10
2018-01-17T00:05:46.522Z,985.02
2018-01-17T00:06:46.542Z,985.03
2018-01-17T00:08:39.568Z,985.01
2018-01-17T00:09:39.579Z,985.03
2018-01-17T00:11:32.578Z,984.98
2018-01-17T00:12:32.606Z,985.02
2018-01-17T00:14:25.583Z,985.03
2018-01-17T00:15:25.664Z,985.00
2018-01-17T00:17:18.661Z,984.90
2018-01-17T00:18:18.671Z,984.87
2018-01-17T00:20:11.689Z,984.82
2018-01-17T00:21:11.770Z,984.81
2018-01-17T00:23:04.741Z,984.79
2018-01-17T00:24:04.762Z,984.77
2018-01-17T00:25:57.754Z,984.69
2018-01-17T00:26:57.817Z,984.75
2018-01-17T00:28:50.769Z,984.70
2018-01-17T00:29:50.815Z,984.63
2018-01-17T00:31:43.806Z,984.67
2018-01-17T00:32:43.886Z,984.59
2018-01-17T00:34:36.888Z,984.54
2018-01-17T00:35:36.917Z,984.53
2018-01-17T00:37:29.881Z,984.51
2018-01-17T00:38:29.979Z,984.49
2018-01-17T00:40:22.906Z,984.46
2018-01-17T00:41:22.948Z,984.44
2018-01-17T00:43:15.936Z,984.43
2018-01-17T00:44:15.977Z,984.42
2018-01-17T00:46:08.945Z,984.37
2018-01-17T00:47:09.070Z,984.41
2018-01-17T00:49:02.006Z,984.47
2018-01-17T00:50:02.045Z,984.43
2018-01-17T00:51:55.001Z,984.47
2018-01-17T00:52:55.056Z,984.43
2018-01-17T00:54:48.067Z,984.44
2018-01-17T00:55:48.144Z,984.44
2018-01-17T00:57:41.082Z,984.40
2018-01-17T00:58:41.120Z,984.43
2018-01-17T01:00:34.116Z,984.46
2018-01-17T01:01:34.181Z,984.45
2018-01-17T01:03:27.161Z,984.47
2018-01-17T01:04:27.196Z,984.46
2018-01-17T01:06:20.153Z,984.46
2018-01-17T01:07:20.201Z,984.43
2018-01-17T01:09:13.209Z,984.48
2018-01-17T01:10:13.253Z,984.47
2018-01-17T01:12:06.217Z,984.58
2018-01-17T01:13:06.323Z,984.56
2018-01-17T01:14:59.288Z,984.49
2018-01-17T01:15:59.311Z,984.51
2018-01-17T01:17:52.298Z,984.47
2018-01-17T01:18:52.408Z,984.50
2018-01-17T01:20:45.334Z,984.45
2018-01-17T01:21:45.382Z,984.48
2018-01-17T01:23:38.349Z,984.40
2018-01-17T01:24:38.439Z,984.43
2018-01-17T01:26:31.393Z,984.45
2018-01-17T01:27:31.433Z,984.51
2018-01-17T01:29:24.421Z,984.49
2018-01-17T01:30:24.463Z,984.42
2018-01-17T01:32:17.441Z,984.40
2018-01-17T01:33:17.550Z,984.41
2018-01-17T01:35:10.522Z,984.41
2018-01-17T01:36:10.541Z,984.46
2018-01-17T01:38:03.533Z,984.47
2018-01-17T01:39:03.596Z,984.46
2018-01-17T01:40:56.603Z,984.48
2018-01-17T01:41:56.636Z,984.47
2018-01-17T01:43:49.588Z,984.46
2018-01-17T01:44:49.665Z,984.47
2018-01-17T01:46:42.666Z,984.67
2018-01-17T01:47:42.693Z,984.71
2018-01-17T01:49:35.647Z,984.79
2018-01-17T01:50:35.701Z,984.82
2018-01-17T01:52:28.716Z,984.81
2018-01-17T01:53:28.747Z,984.89
2018-01-17T01:55:21.730Z,984.93
2018-01-17T01:56:21.787Z,984.99
2018-01-17T01:58:14.744Z,984.97
2018-01-17T01:59:14.806Z,984.95
2018-01-17T02:01:07.808Z,984.99
2018-01-17T02:02:07.843Z,984.99
2018-01-17T02:04:00.818Z,985.01
2018-01-17T02:05:00.872Z,984.96
2018-01-17T02:06:53.884Z,984.99
2018-01-17T02:07:53.905Z,985.01
2018-01-17T02:09:46.926Z,985.05
2018-01-17T02:10:46.961Z,985.03
2018-01-17T02:12:39.940Z,985.11
2018-01-17T02:13:39.958Z,985.16
2018-01-17T02:15:32.955Z,985.15
2018-01-17T02:16:32.997Z,985.15
2018-01-17T02:18:26.020Z,985.19
2018-01-17T02:19:26.056Z,985.20
2018-01-17T02:21:19.058Z,985.15
2018-01-17T02:22:19.076Z,985.11
2018-01-17T02:24:12.055Z,985.28
2018-01-17T02:25:12.121Z,985.30
2018-01-17T02:27:05.123Z,985.26
2018-01-17T02:28:05.138Z,985.26
2018-01-17T02:29:58.146Z,985.19
2018-01-17T02:30:58.167Z,985.18
2018-01-17T02:32:51.193Z,985.13
2018-01-17T02:33:51.212Z,985.15
2018-01-17T02:35:44.169Z,985.06
2018-01-17T02:36:44.258Z,985.05
2018-01-17T02:38:37.217Z,985.05
2018-01-17T02:39:37.262Z,985.06
2018-01-17T02:41:30.285Z,985.06
2018-01-17T02:42:30.293Z,985.05
2018-01-17T02:44:23.313Z,985.05
2018-01-17T02:45:23.337Z,985.05
2018-01-17T02:47:16.331Z,985.09
2018-01-17T02:48:16.363Z,985.11
2018-01-17T02:50:09.379Z,985.14
2018-01-17T02:51:09.414Z,985.15
2018-01-17T02:53:02.390Z,985.19
2018-01-17T02:54:02.424Z,985.21
2018-01-17T02:55:55.407Z,985.27
2018-01-17T02:56:55.450Z,985.22
2018-01-17T02:58:48.467Z,985.27
2018-01-17T02:59:48.517Z,985.28
2018-01-17T03:01:41.960Z,985.29
2018-01-17T03:02:42.035Z,985.31
2018-01-17T03:04:35.025Z,985.33
2018-01-17T03:05:35.053Z,985.33
2018-01-17T03:07:28.077Z,985.36
2018-01-17T03:08:28.077Z,985.34
2018-01-17T03:10:21.092Z,985.38
2018-01-17T03:11:21.155Z,985.40
2018-01-17T03:13:14.152Z,985.38
2018-01-17T03:14:14.154Z,985.36
2018-01-17T03:16:07.141Z,985.39
2018-01-17T03:17:07.200Z,985.33
2018-01-17T03:19:00.203Z,985.25
2018-01-17T03:20:00.237Z,985.28
2018-01-17T03:21:53.211Z,985.29
2018-01-17T03:22:53.265Z,985.32
2018-01-17T03:24:46.265Z,985.34
2018-01-17T03:25:46.308Z,985.35
2018-01-17T03:27:39.290Z,985.40
2018-01-17T03:28:39.425Z,985.39
2018-01-17T03:30:32.330Z,985.43
2018-01-17T03:31:32.353Z,985.32
2018-01-17T03:33:25.818Z,985.38
2018-01-17T03:34:25.874Z,985.40
2018-01-17T03:36:18.883Z,985.49
2018-01-17T03:37:18.922Z,985.42
2018-01-17T03:39:11.948Z,985.45
2018-01-17T03:40:11.955Z,985.44
2018-01-17T03:42:04.904Z,985.48
2018-01-17T03:43:04.983Z,985.49
2018-01-17T03:44:57.972Z,985.51
2018-01-17T03:45:57.995Z,985.50
2018-01-17T03:47:51.014Z,985.50
2018-01-17T03:48:51.014Z,985.46
2018-01-17T03:50:44.069Z,985.42
2018-01-17T03:51:44.066Z,985.44
2018-01-17T03:53:37.057Z,985.51
2018-01-17T03:54:37.121Z,985.47
2018-01-17T03:56:30.094Z,985.55
2018-01-17T03:57:30.151Z,985.57
2018-01-17T03:59:23.100Z,985.56
2018-01-17T04:00:23.148Z,985.51
2018-01-17T04:02:16.158Z,985.46
2018-01-17T04:03:16.174Z,985.47
2018-01-17T04:05:09.192Z,985.50
2018-01-17T04:06:09.261Z,985.55
2018-01-17T04:08:02.204Z,985.57
2018-01-17T04:09:02.269Z,985.59
2018-01-17T04:10:55.268Z,985.60
2018-01-17T04:11:55.310Z,985.57
2018-01-17T04:13:48.290Z,985.60
2018-01-17T04:14:48.422Z,985.59
2018-01-17T04:16:41.319Z,985.71
2018-01-17T04:17:41.360Z,985.70
2018-01-17T04:19:34.354Z,985.74
2018-01-17T04:20:34.406Z,985.73
2018-01-17T04:22:27.423Z,985.81
2018-01-17T04:23:27.464Z,985.78
2018-01-17T04:25:20.437Z,985.82
2018-01-17T04:26:20.528Z,985.75
2018-01-17T04:28:13.497Z,985.76
2018-01-17T04:29:13.525Z,985.74
2018-01-17T04:31:06.508Z,985.79
2018-01-17T04:32:06.540Z,985.76
2018-01-17T04:33:59.526Z,985.85
2018-01-17T04:34:59.657Z,985.86
2018-01-17T04:36:52.604Z,985.91
2018-01-17T04:37:52.600Z,985.88
2018-01-17T04:39:45.573Z,985.95
2018-01-17T04:40:45.628Z,985.96
2018-01-17T04:42:38.624Z,986.00
2018-01-17T04:43:38.677Z,985.99
2018-01-17T04:45:31.636Z,985.94
2018-01-17T04:46:31.687Z,985.98
2018-01-17T04:48:24.680Z,986.07
2018-01-17T04:49:24.714Z,986.04
2018-01-17T04:51:17.735Z,986.10
2018-01-17T04:52:17.743Z,986.14
2018-01-17T04:54:11.296Z,986.20
2018-01-17T04:55:12.406Z,986.17
2018-01-17T04:57:04.421Z,986.18
2018-01-17T04:58:04.371Z,986.21
2018-01-17T04:59:57.390Z,986.32
2018-01-17T05:00:57.419Z,986.33
2018-01-17T05:02:50.583Z,986.35
2018-01-17T05:03:50.482Z,986.37
2018-01-17T05:05:43.438Z,986.40
2018-01-17T05:06:43.617Z,986.41
2018-01-17T05:08:36.692Z,986.43
2018-01-17T05:09:36.549Z,986.42
2018-01-17T05:11:29.454Z,986.45
2018-01-17T05:12:29.666Z,986.46
2018-01-17T05:14:22.610Z,986.49
2018-01-17T05:15:22.603Z,986.53
2018-01-17T05:17:15.577Z,986.61
2018-01-17T05:18:15.733Z,986.61
2018-01-17T05:20:08.622Z,986.59
2018-01-17T05:21:08.790Z,986.65
2018-01-17T05:23:01.764Z,986.66
2018-01-17T05:24:01.674Z,986.63
2018-01-17T05:25:54.706Z,986.64
2018-01-17T05:26:54.726Z,986.63
2018-01-17T05:28:47.792Z,986.66
2018-01-17T05:29:47.736Z,986.65
2018-01-17T05:31:40.771Z,986.66
2018-01-17T05:32:40.894Z,986.66
2018-01-17T05:34:33.886Z,986.69
2018-01-17T05:35:33.871Z,986.64
2018-01-17T05:37:26.900Z,986.65
2018-01-17T05:38:26.822Z,986.70
2018-01-17T05:40:19.920Z,986.68
2018-01-17T05:41:19.960Z,986.63
2018-01-17T05:43:12.847Z,986.72
2018-01-17T05:44:12.908Z,986.73
2018-01-17T05:46:05.911Z,986.75
2018-01-17T05:47:05.994Z,986.73
2018-01-17T05:48:58.968Z,986.79
2018-01-17T05:49:59.084Z,986.80
2018-01-17T05:51:53.044Z,986.87
2018-01-17T05:52:52.096Z,986.89
2018-01-17T05:54:45.026Z,986.89
2018-01-17T05:55:45.292Z,986.93
2018-01-17T05:57:39.638Z,986.96
2018-01-17T05:58:39.600Z,986.97
2018-01-17T06:00:32.594Z,987.06
2018-01-17T06:01:32.601Z,987.05
2018-01-17T06:03:25.581Z,987.09
2018-01-17T06:04:25.633Z,987.15
2018-01-17T06:06:18.789Z,987.16
2018-01-17T06:07:18.655Z,987.27
2018-01-17T06:09:11.650Z,987.27
2018-01-17T06:10:11.683Z,987.34
2018-01-17T06:12:04.679Z,987.27
2018-01-17T06:13:05.026Z,987.32
2018-01-17T06:14:57.753Z,987.34
2018-01-17T06:15:57.855Z,987.39
2018-01-17T06:17:50.767Z,987.39
2018-01-17T06:18:50.938Z,987.38
2018-01-17T06:20:45.361Z,987.37
2018-01-17T06:21:45.362Z,987.43
2018-01-17T06:23:38.350Z,987.48
2018-01-17T06:24:38.364Z,987.48
2018-01-17T06:26:31.440Z,987.55
2018-01-17T06:27:31.416Z,987.53
2018-01-17T06:29:24.454Z,987.57
2018-01-17T06:30:24.427Z,987.57
2018-01-17T06:32:17.496Z,987.64
2018-01-17T06:33:17.453Z,987.64
2018-01-17T06:35:10.436Z,987.70
2018-01-17T06:36:10.540Z,987.72
2018-01-17T06:38:03.539Z,987.67
2018-01-17T06:39:03.515Z,987.70
2018-01-17T06:40:56.519Z,987.74
2018-01-17T06:41:56.522Z,987.75
2018-01-17T06:43:49.571Z,987.72
2018-01-17T06:44:49.642Z,987.75
2018-01-17T06:46:42.636Z,987.79
2018-01-17T06:47:42.659Z,987.78
2018-01-17T06:49:35.633Z,987.78
2018-01-17T06:50:35.657Z,987.85
2018-01-17T06:52:28.692Z,988.00
2018-01-17T06:53:28.750Z,987.97
2018-01-17T06:55:21.738Z,988.07
2018-01-17T06:56:21.753Z,988.11
2018-01-17T06:58:14.704Z,988.06
2018-01-17T06:59:14.908Z,988.17
2018-01-17T07:01:07.787Z,988.17
2018-01-17T07:02:07.793Z,988.23
2018-01-17T07:04:00.815Z,988.23
2018-01-17T07:05:00.844Z,988.28
2018-01-17T07:06:53.825Z,988.48
2018-01-17T07:07:53.906Z,988.45
2018-01-17T07:09:46.975Z,988.47
2018-01-17T07:10:46.910Z,988.47
2018-01-17T07:12:39.893Z,988.61
2018-01-17T07:13:39.930Z,988.62
2018-01-17T07:15:33.021Z,988.55
2018-01-17T07:16:32.985Z,988.70
2018-01-17T07:18:25.942Z,988.68
2018-01-17T07:19:26.004Z,988.75
2018-01-17T07:21:19.450Z,988.75
2018-01-17T07:22:19.533Z,988.77
2018-01-17T07:24:12.519Z,988.82
2018-01-17T07:25:12.526Z,988.84
2018-01-17T07:27:05.700Z,988.88
2018-01-17T07:28:05.582Z,988.89
2018-01-17T07:29:58.597Z,988.92
2018-01-17T07:30:58.637Z,988.92
2018-01-17T07:32:51.600Z,988.91
2018-01-17T07:33:51.639Z,988.96
2018-01-17T07:35:44.675Z,988.98
2018-01-17T07:36:44.711Z,989.00
2018-01-17T07:38:37.619Z,989.08
2018-01-17T07:39:37.668Z,989.05
2018-01-17T07:41:30.698Z,989.18
2018-01-17T07:42:30.681Z,989.16
2018-01-17T07:44:23.717Z,989.19
2018-01-17T07:45:23.756Z,989.22
2018-01-17T07:47:16.714Z,989.32
2018-01-17T07:48:16.781Z,989.29
2018-01-17T07:50:09.799Z,989.39
2018-01-17T07:51:09.753Z,989.43
2018-01-17T07:53:02.790Z,989.47
2018-01-17T07:54:02.807Z,989.51
2018-01-17T07:55:55.923Z,989.61
2018-01-17T07:56:55.854Z,989.61
2018-01-17T07:58:48.828Z,989.70
2018-01-17T07:59:48.874Z,989.74
2018-01-17T08:01:41.880Z,989.77
2018-01-17T08:02:41.904Z,989.79
2018-01-17T08:04:34.980Z,989.85
2018-01-17T08:05:34.906Z,989.81
2018-01-17T08:07:27.938Z,989.90
2018-01-17T08:08:27.962Z,989.94
2018-01-17T08:10:20.997Z,989.89
2018-01-17T08:11:20.966Z,989.95
2018-01-17T08:13:14.033Z,990.03
2018-01-17T08:14:13.992Z,989.99
2018-01-17T08:16:07.024Z,990.13
2018-01-17T08:17:07.015Z,990.11
2018-01-17T08:19:00.051Z,990.16
2018-01-17T08:20:00.126Z,990.11
2018-01-17T08:21:53.070Z,990.17
2018-01-17T08:22:53.106Z,990.21
2018-01-17T08:24:46.115Z,990.27
2018-01-17T08:25:46.143Z,990.29
2018-01-17T08:27:39.121Z,990.34
2018-01-17T08:28:39.194Z,990.36
2018-01-17T08:30:32.164Z,990.43
2018-01-17T08:31:32.180Z,990.40
2018-01-17T08:33:25.178Z,990.41
2018-01-17T08:34:25.202Z,990.39
2018-01-17T08:36:18.232Z,990.38
2018-01-17T08:37:18.246Z,990.46
2018-01-17T08:39:11.758Z,990.52
2018-01-17T08:40:11.794Z,990.57
2018-01-17T08:42:04.764Z,990.59
2018-01-17T08:43:04.817Z,990.57
2018-01-17T08:44:57.807Z,990.59
2018-01-17T08:45:57.839Z,990.59
2018-01-17T08:47:50.827Z,990.59
2018-01-17T08:48:50.854Z,990.66
2018-01-17T08:50:43.866Z,990.63
2018-01-17T08:51:43.878Z,990.63
2018-01-17T08:53:36.859Z,990.74
2018-01-17T08:54:36.915Z,990.85
2018-01-17T08:56:29.973Z,990.85
2018-01-17T08:57:29.934Z,990.92
2018-01-17T08:59:22.947Z,990.96
2018-01-17T09:00:22.965Z,990.96
2018-01-17T09:02:15.945Z,990.98
2018-01-17T09:03:15.993Z,990.97
2018-01-17T09:05:09.004Z,991.05
2018-01-17T09:06:09.016Z,991.08
2018-01-17T09:08:01.988Z,991.09
2018-01-17T09:09:02.043Z,991.12
2018-01-17T09:10:55.060Z,991.20
2018-01-17T09:11:55.089Z,991.21
2018-01-17T09:13:48.041Z,991.29
2018-01-17T09:14:48.094Z,991.29
2018-01-17T09:16:41.117Z,991.28
2018-01-17T09:17:41.136Z,991.32
2018-01-17T09:19:34.149Z,991.35
2018-01-17T09:20:34.198Z,991.28
2018-01-17T09:22:27.159Z,991.29
2018-01-17T09:23:27.185Z,991.34
2018-01-17T09:25:20.187Z,991.36
2018-01-17T09:26:20.208Z,991.40
2018-01-17T09:28:13.227Z,991.37
2018-01-17T09:29:13.241Z,991.47
2018-01-17T09:31:06.279Z,991.39
2018-01-17T09:32:06.338Z,991.46
2018-01-17T09:33:59.283Z,991.47
2018-01-17T09:34:59.293Z,991.51
2018-01-17T09:36:52.299Z,991.58
2018-01-17T09:37:52.320Z,991.52
2018-01-17T09:39:45.826Z,991.46
2018-01-17T09:40:45.873Z,991.58
2018-01-17T09:42:38.865Z,991.51
2018-01-17T09:43:38.913Z,991.56
2018-01-17T09:45:31.947Z,991.65
2018-01-17T09:46:31.951Z,991.70
2018-01-17T09:48:24.933Z,991.66
2018-01-17T09:49:24.965Z,991.65
2018-01-17T09:51:17.953Z,991.72
2018-01-17T09:52:17.976Z,991.66
2018-01-17T09:54:10.979Z,991.66
2018-01-17T09:55:11.007Z,991.73
2018-01-17T09:57:04.051Z,991.73
2018-01-17T09:58:04.051Z,991.77
2018-01-17T09:59:57.049Z,991.81
2018-01-17T10:00:57.071Z,991.89
2018-01-17T10:02:50.132Z,991.94
2018-01-17T10:03:50.140Z,992.01
2018-01-17T10:05:43.144Z,992.09
2018-01-17T10:06:43.160Z,992.06
2018-01-17T10:08:36.154Z,992.09
2018-01-17T10:09:36.160Z,992.12
2018-01-17T10:11:29.171Z,992.12
2018-01-17T10:12:29.191Z,992.17
2018-01-17T10:14:22.295Z,992.16
2018-01-17T10:15:22.303Z,992.14
2018-01-17T10:17:15.267Z,992.24
2018-01-17T10:18:15.312Z,992.18
2018-01-17T10:20:08.292Z,992.26
2018-01-17T10:21:08.322Z,992.30
2018-01-17T10:23:01.325Z,992.28
2018-01-17T10:24:01.406Z,992.29
2018-01-17T10:25:54.352Z,992.31
2018-01-17T10:26:54.438Z,992.37
2018-01-17T10:28:47.401Z,992.45
2018-01-17T10:29:47.399Z,992.39
2018-01-17T10:31:40.448Z,992.33
2018-01-17T10:32:40.444Z,992.33
2018-01-17T10:34:33.453Z,992.30
2018-01-17T10:35:33.493Z,992.28
2018-01-17T10:37:26.483Z,992.24
2018-01-17T10:38:26.514Z,992.24
2018-01-17T10:40:20.022Z,992.29
2018-01-17T10:41:20.038Z,992.32
2018-01-17T10:43:13.025Z,992.37
2018-01-17T10:44:13.094Z,992.31
2018-01-17T10:46:06.121Z,992.40
2018-01-17T10:47:06.107Z,992.34
2018-01-17T10:48:59.104Z,992.34
2018-01-17T10:49:59.137Z,992.34
2018-01-17T10:51:52.129Z,992.40
2018-01-17T10:52:52.162Z,992.40
2018-01-17T10:54:45.126Z,992.35
2018-01-17T10:55:45.168Z,992.35
2018-01-17T10:57:38.199Z,992.44
2018-01-17T10:58:38.196Z,992.43
2018-01-17T11:00:31.221Z,992.49
2018-01-17T11:01:31.307Z,992.53
2018-01-17T11:03:24.248Z,992.50
2018-01-17T11:04:24.291Z,992.49
2018-01-17T11:06:17.326Z,992.55
2018-01-17T11:07:17.325Z,992.58
2018-01-17T11:09:10.278Z,992.62
2018-01-17T11:10:10.311Z,992.57
2018-01-17T11:12:03.352Z,992.57
2018-01-17T11:13:03.373Z,992.55
2018-01-17T11:14:56.365Z,992.49
2018-01-17T11:15:56.421Z,992.51
2018-01-17T11:17:49.445Z,992.57
2018-01-17T11:18:49.427Z,992.55
2018-01-17T11:20:42.480Z,992.68
2018-01-17T11:21:42.472Z,992.62
2018-01-17T11:23:35.470Z,992.65
2018-01-17T11:24:35.513Z,992.61
2018-01-17T11:26:28.464Z,992.72
2018-01-17T11:27:28.517Z,992.69
2018-01-17T11:29:21.497Z,992.77
2018-01-17T11:30:21.535Z,992.79
2018-01-17T11:32:14.597Z,992.72
2018-01-17T11:33:14.609Z,992.77
2018-01-17T11:35:07.606Z,992.72
2018-01-17T11:36:07.654Z,992.72
2018-01-17T11:38:00.627Z,992.66
2018-01-17T11:39:00.652Z,992.62
2018-01-17T11:40:53.672Z,992.65
2018-01-17T11:41:53.707Z,992.67
2018-01-17T11:43:46.683Z,992.61
2018-01-17T11:44:46.715Z,992.58
2018-01-17T11:46:39.758Z,992.58
2018-01-17T11:47:39.844Z,992.50
2018-01-17T11:49:32.718Z,992.53
2018-01-17T11:50:32.760Z,992.48
2018-01-17T11:52:25.797Z,992.51
2018-01-17T11:53:25.858Z,992.45
2018-01-17T11:55:18.802Z,992.51
2018-01-17T11:56:18.825Z,992.46
2018-01-17T11:58:11.920Z,992.44
2018-01-17T11:59:11.872Z,992.39
2018-01-17T12:01:04.881Z,992.47
2018-01-17T12:02:05.071Z,992.50
2018-01-17T12:03:57.935Z,992.52
2018-01-17T12:04:58.893Z,992.43
2018-01-17T12:06:51.000Z,992.45
2018-01-17T12:07:51.069Z,992.44
2018-01-17T12:09:43.983Z,992.40
2018-01-17T12:10:43.984Z,992.41
2018-01-17T12:12:37.004Z,992.45
2018-01-17T12:13:37.020Z,992.39
2018-01-17T12:15:30.059Z,992.44
2018-01-17T12:16:30.037Z,992.45
2018-01-17T12:18:23.082Z,992.40
2018-01-17T12:19:23.088Z,992.46
2018-01-17T12:21:16.112Z,992.38
2018-01-17T12:22:16.118Z,992.51
2018-01-17T12:24:09.095Z,992.43
2018-01-17T12:25:09.215Z,992.42
2018-01-17T12:27:02.160Z,992.42
2018-01-17T12:28:02.179Z,992.51
2018-01-17T12:29:55.252Z,992.42
2018-01-17T12:30:55.310Z,992.34
2018-01-17T12:32:48.267Z,992.35
2018-01-17T12:33:48.269Z,992.33
2018-01-17T12:35:41.413Z,992.33
2018-01-17T12:36:41.286Z,992.44
2018-01-17T12:38:34.282Z,992.40
2018-01-17T12:39:34.278Z,992.42
2018-01-17T12:41:27.344Z,992.53
2018-01-17T12:42:27.341Z,992.41
2018-01-17T12:44:20.366Z,992.34
2018-01-17T12:45:20.371Z,992.41
2018-01-17T12:47:13.429Z,992.45
2018-01-17T12:48:13.434Z,992.44
2018-01-17T12:50:06.426Z,992.39
2018-01-17T12:51:06.450Z,992.34
2018-01-17T12:52:59.477Z,992.34
2018-01-17T12:53:59.479Z,992.38
2018-01-17T12:55:52.495Z,992.51
2018-01-17T12:56:52.634Z,992.51
2018-01-17T12:58:45.619Z,992.70
2018-01-17T12:59:45.632Z,992.75
2018-01-17T13:01:38.569Z,992.90
2018-01-17T13:02:38.691Z,992.91
2018-01-17T13:04:31.562Z,993.06
2018-01-17T13:05:31.955Z,992.96
2018-01-17T13:07:24.665Z,992.87
2018-01-17T13:08:24.797Z,992.86
2018-01-17T13:10:17.588Z,992.78
2018-01-17T13:11:17.625Z,992.78
2018-01-17T13:13:10.677Z,992.85
2018-01-17T13:14:10.671Z,992.89
2018-01-17T13:16:03.650Z,992.93
2018-01-17T13:17:03.698Z,993.05
2018-01-17T13:18:56.743Z,993.21
2018-01-17T13:19:56.758Z,993.31
2018-01-17T13:21:49.742Z,993.45
2018-01-17T13:22:49.805Z,993.38
2018-01-17T13:24:42.737Z,993.54
2018-01-17T13:25:42.785Z,993.48
2018-01-17T13:27:35.805Z,993.52
2018-01-17T13:28:35.825Z,993.48
2018-01-17T13:30:28.876Z,993.52
2018-01-17T13:31:28.881Z,993.52
2018-01-17T13:33:21.873Z,993.44
2018-01-17T13:34:21.879Z,993.47
2018-01-17T13:36:14.920Z,993.48
2018-01-17T13:37:14.987Z,993.40
2018-01-17T13:39:07.925Z,993.34
2018-01-17T13:40:08.014Z,993.49
2018-01-17T13:42:00.932Z,993.46
2018-01-17T13:43:00.984Z,993.46
2018-01-17T13:44:53.950Z,993.50
2018-01-17T13:45:53.997Z,993.52
2018-01-17T13:47:47.082Z,993.50
2018-01-17T13:48:47.042Z,993.53
2018-01-17T13:50:40.058Z,993.50
2018-01-17T13:51:40.063Z,993.53
2018-01-17T13:53:33.040Z,993.64
2018-01-17T13:54:33.075Z,993.73
2018-01-17T13:56:26.065Z,993.83
2018-01-17T13:57:26.108Z,993.88
2018-01-17T13:59:19.124Z,993.93
2018-01-17T14:00:19.152Z,993.93
2018-01-17T14:02:12.145Z,993.95
2018-01-17T14:03:12.169Z,993.98
2018-01-17T14:05:05.132Z,994.00
2018-01-17T14:06:05.185Z,993.99
2018-01-17T14:07:58.182Z,994.12
2018-01-17T14:08:58.214Z,994.15
2018-01-17T14:10:51.187Z,994.11
2018-01-17T14:11:51.242Z,994.14
2018-01-17T14:13:44.235Z,994.16
2018-01-17T14:14:44.324Z,994.11
2018-01-17T14:16:37.246Z,994.14
2018-01-17T14:17:37.302Z,994.06
2018-01-17T14:19:30.289Z,994.14
2018-01-17T14:20:30.323Z,994.18
2018-01-17T14:22:23.324Z,994.27
2018-01-17T14:23:23.352Z,994.22
2018-01-17T14:25:16.327Z,994.29
2018-01-17T14:26:16.382Z,994.26
2018-01-17T14:28:09.389Z,994.20
2018-01-17T14:29:09.410Z,994.24
2018-01-17T14:31:02.382Z,994.28
2018-01-17T14:32:02.460Z,994.29
2018-01-17T14:33:55.469Z,994.31
2018-01-17T14:34:55.466Z,994.36
2018-01-17T14:36:48.451Z,994.32
2018-01-17T14:37:48.493Z,994.28
2018-01-17T14:39:41.606Z,994.39
2018-01-17T14:40:41.547Z,994.39
2018-01-17T14:42:34.527Z,994.29
2018-01-17T14:43:34.573Z,994.51
2018-01-17T14:45:27.524Z,994.70
2018-01-17T14:46:27.611Z,994.74
2018-01-17T14:48:20.574Z,994.85
2018-01-17T14:49:20.610Z,994.88
2018-01-17T14:51:14.098Z,994.87
2018-01-17T14:52:14.148Z,994.93
2018-01-17T14:54:07.142Z,994.88
2018-01-17T14:55:07.176Z,994.78
2018-01-17T14:57:00.161Z,994.82
2018-01-17T14:58:00.206Z,994.89
2018-01-17T14:59:53.209Z,994.99
2018-01-17T15:00:53.256Z,995.06
2018-01-17T15:02:46.237Z,995.06
2018-01-17T15:03:46.275Z,995.09
2018-01-17T15:05:39.245Z,995.10
2018-01-17T15:06:39.316Z,995.13
2018-01-17T15:08:32.322Z,995.17
2018-01-17T15:09:32.337Z,995.15
2018-01-17T15:11:25.324Z,995.16
2018-01-17T15:12:25.385Z,995.14
2018-01-17T15:14:18.374Z,995.21
2018-01-17T15:15:18.410Z,995.31
2018-01-17T15:17:11.388Z,995.31
2018-01-17T15:18:11.448Z,995.34
2018-01-17T15:20:04.451Z,995.33
2018-01-17T15:21:04.479Z,995.37
2018-01-17T15:22:57.471Z,995.44
2018-01-17T15:23:57.498Z,995.45
2018-01-17T15:25:50.504Z,995.50
2018-01-17T15:26:50.551Z,995.47
2018-01-17T15:28:43.569Z,995.40
2018-01-17T15:29:43.574Z,995.47
2018-01-17T15:31:36.543Z,995.50
2018-01-17T15:32:36.586Z,995.56
2018-01-17T15:34:30.078Z,995.63
2018-01-17T15:35:30.116Z,995.53
2018-01-17T15:37:23.097Z,995.64
2018-01-17T15:38:23.182Z,995.68
2018-01-17T15:40:16.151Z,995.80
2018-01-17T15:41:16.181Z,995.79
2018-01-17T15:43:09.177Z,995.83
2018-01-17T15:44:09.212Z,995.90
2018-01-17T15:46:02.186Z,995.90
2018-01-17T15:47:02.241Z,995.98
2018-01-17T15:48:55.249Z,996.02
2018-01-17T15:49:55.292Z,996.01
2018-01-17T15:51:48.260Z,995.96
2018-01-17T15:52:48.312Z,995.91
2018-01-17T15:54:41.313Z,995.97
2018-01-17T15:55:41.344Z,996.04
2018-01-17T15:57:34.317Z,996.04
2018-01-17T15:58:34.370Z,996.14
2018-01-17T16:00:27.364Z,996.15
2018-01-17T16:01:27.399Z,996.20
2018-01-17T16:03:20.903Z,996.18
2018-01-17T16:04:20.935Z,996.23
2018-01-17T16:06:13.919Z,996.27
2018-01-17T16:07:13.976Z,996.33
2018-01-17T16:09:06.974Z,996.34
2018-01-17T16:10:07.008Z,996.34
2018-01-17T16:11:59.984Z,996.33
2018-01-17T16:13:00.041Z,996.38
2018-01-17T16:14:53.033Z,996.52
2018-01-17T16:15:53.068Z,996.52
2018-01-17T16:17:46.045Z,996.59
2018-01-17T16:18:46.096Z,996.54
2018-01-17T16:20:39.095Z,996.56
2018-01-17T16:21:39.123Z,996.58
2018-01-17T16:23:32.116Z,996.63
2018-01-17T16:24:32.150Z,996.73
2018-01-17T16:26:25.126Z,996.72
2018-01-17T16:27:25.259Z,996.80
2018-01-17T16:29:18.251Z,996.81
2018-01-17T16:30:18.229Z,996.82
2018-01-17T16:32:11.190Z,996.78
2018-01-17T16:33:11.240Z,996.75
2018-01-17T16:35:04.237Z,996.78
2018-01-17T16:36:04.268Z,996.84
2018-01-17T16:37:57.239Z,996.93
2018-01-17T16:38:57.293Z,996.91
2018-01-17T16:40:50.326Z,996.99
2018-01-17T16:41:50.323Z,997.02
2018-01-17T16:43:43.316Z,997.10
2018-01-17T16:44:43.351Z,997.08
2018-01-17T16:46:36.320Z,997.12
2018-01-17T16:47:36.375Z,997.16
2018-01-17T16:49:29.374Z,997.22
2018-01-17T16:50:29.406Z,997.30
2018-01-17T16:52:22.394Z,997.30
2018-01-17T16:53:22.445Z,997.36
2018-01-17T16:55:15.441Z,997.37
2018-01-17T16:56:15.476Z,997.41
2018-01-17T16:58:08.451Z,997.38
2018-01-17T16:59:08.505Z,997.45
2018-01-17T17:01:01.509Z,997.46
2018-01-17T17:02:01.544Z,997.48
2018-01-17T17:03:54.555Z,997.54
2018-01-17T17:04:54.573Z,997.53
2018-01-17T17:06:47.557Z,997.52
2018-01-17T17:07:47.640Z,997.54
2018-01-17T17:09:40.635Z,997.57
2018-01-17T17:10:40.666Z,997.49
2018-01-17T17:12:33.653Z,997.62
2018-01-17T17:13:33.700Z,997.61
2018-01-17T17:15:26.693Z,997.67
2018-01-17T17:16:26.727Z,997.69
2018-01-17T17:18:19.735Z,997.67
2018-01-17T17:19:19.762Z,997.74
2018-01-17T17:21:12.758Z,997.66
2018-01-17T17:22:12.792Z,997.66
2018-01-17T17:24:05.785Z,997.74
2018-01-17T17:25:05.819Z,997.68
2018-01-17T17:26:58.805Z,997.67
2018-01-17T17:27:58.855Z,997.67
2018-01-17T17:29:51.859Z,997.63
2018-01-17T17:30:51.893Z,997.70
2018-01-17T17:32:44.874Z,997.61
2018-01-17T17:33:44.933Z,997.62
2018-01-17T17:35:37.917Z,997.64
2018-01-17T17:36:37.952Z,997.63
2018-01-17T17:38:31.208Z,997.57
2018-01-17T17:39:30.984Z,997.61
2018-01-17T17:41:23.996Z,997.63
2018-01-17T17:42:24.015Z,997.62
2018-01-17T17:44:17.008Z,997.63
2018-01-17T17:45:17.045Z,997.59
2018-01-17T17:47:10.013Z,997.63
2018-01-17T17:48:10.068Z,997.61
2018-01-17T17:50:03.065Z,997.62
2018-01-17T17:51:03.097Z,997.66
2018-01-17T17:52:56.602Z,997.67
2018-01-17T17:53:56.681Z,997.66
2018-01-17T17:55:49.624Z,997.72
2018-01-17T17:56:49.662Z,997.71
2018-01-17T17:58:42.636Z,997.80